sensor_id;sensor_type;location;lat;lon;timestamp;P1;durP1;ratioP1;P2;durP2;ratioP2
60979;SDS011;46851;49.160;8.980;2023-03-01T00:00:21;19.27;;;11.15;;
60979;SDS011;46851;49.160;8.980;2023-03-01T00:02:47;21.17;;;10.65;;
60979;SDS011;46851;49.160;8.980;2023-03-01T00:05:13;20.38;;;11.38;;
60979;SDS011;46851;49.160;8.980;2023-03-01T00:07:39;21.90;;;11.18;;
60979;SDS011;46851;49.160;8.980;2023-03-01T00:10:05;23.08;;;12.68;;
60979;SDS011;46851;49.160;8.980;2023-03-01T00:12:31;22.40;;;11.38;;
60979;SDS011;46851;49.160;8.980;2023-03-01T00:14:57;19.80;;;11.73;;
60979;SDS011;46851;49.160;8.980;2023-03-01T00:17:23;20.25;;;11.93;;
60979;SDS011;46851;49.160;8.980;2023-03-01T00:19:49;22.17;;;11.68;;
60979;SDS011;46851;49.160;8.980;2023-03-01T00:22:15;21.00;;;11.00;;
60979;SDS011;46851;49.160;8.980;2023-03-01T00:24:41;21.20;;;11.93;;
60979;SDS011;46851;49.160;8.980;2023-03-01T00:27:07;20.52;;;11.73;;
60979;SDS011;46851;49.160;8.980;2023-03-01T00:29:33;22.92;;;11.77;;
60979;SDS011;46851;49.160;8.980;2023-03-01T00:31:59;20.25;;;12.68;;
60979;SDS011;46851;49.160;8.980;2023-03-01T00:34:25;23.15;;;13.13;;
60979;SDS011;46851;49.160;8.980;2023-03-01T00:36:51;21.52;;;12.18;;
60979;SDS011;46851;49.160;8.980;2023-03-01T00:39:17;21.95;;;12.35;;
60979;SDS011;46851;49.160;8.980;2023-03-01T00:41:43;20.48;;;12.32;;
60979;SDS011;46851;49.160;8.980;2023-03-01T00:44:09;23.90;;;12.98;;
60979;SDS011;46851;49.160;8.980;2023-03-01T00:46:35;23.33;;;12.80;;
60979;SDS011;46851;49.160;8.980;2023-03-01T00:49:01;24.05;;;12.68;;
60979;SDS011;46851;49.160;8.980;2023-03-01T00:51:29;25.73;;;13.43;;
60979;SDS011;46851;49.160;8.980;2023-03-01T00:53:57;24.27;;;12.38;;
60979;SDS011;46851;49.160;8.980;2023-03-01T00:56:23;26.88;;;13.45;;
60979;SDS011;46851;49.160;8.980;2023-03-01T00:58:49;23.38;;;11.70;;
60979;SDS011;46851;49.160;8.980;2023-03-01T01:01:19;25.80;;;13.57;;
60979;SDS011;46851;49.160;8.980;2023-03-01T01:03:46;25.88;;;12.02;;
60979;SDS011;46851;49.160;8.980;2023-03-01T01:06:15;24.23;;;13.32;;
60979;SDS011;46851;49.160;8.980;2023-03-01T01:08:41;24.77;;;14.02;;
60979;SDS011;46851;49.160;8.980;2023-03-01T01:11:08;22.90;;;13.43;;
60979;SDS011;46851;49.160;8.980;2023-03-01T01:13:35;24.42;;;13.05;;
60979;SDS011;46851;49.160;8.980;2023-03-01T01:16:01;25.33;;;13.23;;
60979;SDS011;46851;49.160;8.980;2023-03-01T01:18:27;23.27;;;12.80;;
60979;SDS011;46851;49.160;8.980;2023-03-01T01:20:53;27.20;;;13.32;;
60979;SDS011;46851;49.160;8.980;2023-03-01T01:23:19;23.90;;;12.73;;
60979;SDS011;46851;49.160;8.980;2023-03-01T01:25:45;25.23;;;13.93;;
60979;SDS011;46851;49.160;8.980;2023-03-01T01:28:11;22.65;;;12.35;;
60979;SDS011;46851;49.160;8.980;2023-03-01T01:30:37;26.27;;;13.30;;
60979;SDS011;46851;49.160;8.980;2023-03-01T01:33:03;24.40;;;13.20;;
60979;SDS011;46851;49.160;8.980;2023-03-01T01:35:29;24.08;;;14.15;;
60979;SDS011;46851;49.160;8.980;2023-03-01T01:37:55;26.52;;;14.23;;
60979;SDS011;46851;49.160;8.980;2023-03-01T01:40:21;29.35;;;14.35;;
60979;SDS011;46851;49.160;8.980;2023-03-01T01:42:47;25.63;;;14.00;;
60979;SDS011;46851;49.160;8.980;2023-03-01T01:45:27;28.27;;;13.82;;
60979;SDS011;46851;49.160;8.980;2023-03-01T01:47:53;24.55;;;12.65;;
60979;SDS011;46851;49.160;8.980;2023-03-01T01:50:21;26.67;;;12.93;;
60979;SDS011;46851;49.160;8.980;2023-03-01T01:52:48;25.65;;;12.98;;
60979;SDS011;46851;49.160;8.980;2023-03-01T01:55:16;25.08;;;14.05;;
60979;SDS011;46851;49.160;8.980;2023-03-01T01:57:46;23.80;;;13.52;;
60979;SDS011;46851;49.160;8.980;2023-03-01T02:00:14;26.98;;;12.07;;
60979;SDS011;46851;49.160;8.980;2023-03-01T02:02:41;24.20;;;12.63;;
60979;SDS011;46851;49.160;8.980;2023-03-01T02:05:09;26.35;;;13.57;;
60979;SDS011;46851;49.160;8.980;2023-03-01T02:07:38;25.50;;;13.68;;
60979;SDS011;46851;49.160;8.980;2023-03-01T02:10:04;27.88;;;14.13;;
60979;SDS011;46851;49.160;8.980;2023-03-01T02:12:30;27.70;;;14.95;;
60979;SDS011;46851;49.160;8.980;2023-03-01T02:14:56;28.33;;;14.35;;
60979;SDS011;46851;49.160;8.980;2023-03-01T02:17:22;27.30;;;13.82;;
60979;SDS011;46851;49.160;8.980;2023-03-01T02:19:52;25.15;;;13.60;;
60979;SDS011;46851;49.160;8.980;2023-03-01T02:27:49;27.20;;;13.52;;
60979;SDS011;46851;49.160;8.980;2023-03-01T02:30:16;30.10;;;14.48;;
60979;SDS011;46851;49.160;8.980;2023-03-01T02:32:43;26.58;;;13.35;;
60979;SDS011;46851;49.160;8.980;2023-03-01T02:35:10;26.35;;;14.23;;
60979;SDS011;46851;49.160;8.980;2023-03-01T02:37:37;26.48;;;13.57;;
60979;SDS011;46851;49.160;8.980;2023-03-01T02:40:06;27.25;;;14.18;;
60979;SDS011;46851;49.160;8.980;2023-03-01T02:42:36;27.00;;;14.52;;
60979;SDS011;46851;49.160;8.980;2023-03-01T02:45:06;28.25;;;14.38;;
60979;SDS011;46851;49.160;8.980;2023-03-01T02:47:32;25.02;;;13.75;;
60979;SDS011;46851;49.160;8.980;2023-03-01T02:49:58;31.85;;;15.50;;
60979;SDS011;46851;49.160;8.980;2023-03-01T02:52:37;26.13;;;13.73;;
60979;SDS011;46851;49.160;8.980;2023-03-01T02:55:08;30.00;;;14.40;;
60979;SDS011;46851;49.160;8.980;2023-03-01T02:57:35;27.83;;;15.43;;
60979;SDS011;46851;49.160;8.980;2023-03-01T03:00:04;26.23;;;14.00;;
60979;SDS011;46851;49.160;8.980;2023-03-01T03:02:31;29.55;;;14.50;;
60979;SDS011;46851;49.160;8.980;2023-03-01T03:05:10;29.20;;;14.93;;
60979;SDS011;46851;49.160;8.980;2023-03-01T03:07:38;28.90;;;14.90;;
60979;SDS011;46851;49.160;8.980;2023-03-01T03:10:06;31.23;;;15.07;;
60979;SDS011;46851;49.160;8.980;2023-03-01T03:12:32;29.58;;;14.48;;
60979;SDS011;46851;49.160;8.980;2023-03-01T03:14:58;28.98;;;15.00;;
60979;SDS011;46851;49.160;8.980;2023-03-01T03:17:24;29.88;;;15.73;;
60979;SDS011;46851;49.160;8.980;2023-03-01T03:19:50;31.52;;;15.10;;
60979;SDS011;46851;49.160;8.980;2023-03-01T03:22:16;29.98;;;15.52;;
60979;SDS011;46851;49.160;8.980;2023-03-01T03:24:42;27.40;;;14.40;;
60979;SDS011;46851;49.160;8.980;2023-03-01T03:27:08;32.72;;;14.48;;
60979;SDS011;46851;49.160;8.980;2023-03-01T03:29:34;33.17;;;15.02;;
60979;SDS011;46851;49.160;8.980;2023-03-01T03:32:00;27.27;;;14.38;;
60979;SDS011;46851;49.160;8.980;2023-03-01T03:34:28;34.65;;;16.67;;
60979;SDS011;46851;49.160;8.980;2023-03-01T03:36:55;30.00;;;15.13;;
60979;SDS011;46851;49.160;8.980;2023-03-01T03:39:25;28.63;;;14.25;;
60979;SDS011;46851;49.160;8.980;2023-03-01T03:41:51;32.20;;;14.35;;
60979;SDS011;46851;49.160;8.980;2023-03-01T03:44:17;29.35;;;14.35;;
60979;SDS011;46851;49.160;8.980;2023-03-01T03:46:43;30.80;;;15.75;;
60979;SDS011;46851;49.160;8.980;2023-03-01T03:49:09;29.80;;;15.35;;
60979;SDS011;46851;49.160;8.980;2023-03-01T03:51:35;30.70;;;14.63;;
60979;SDS011;46851;49.160;8.980;2023-03-01T03:54:01;30.40;;;14.57;;
60979;SDS011;46851;49.160;8.980;2023-03-01T03:56:27;31.20;;;14.93;;
60979;SDS011;46851;49.160;8.980;2023-03-01T03:58:53;31.80;;;16.20;;
60979;SDS011;46851;49.160;8.980;2023-03-01T04:01:19;30.42;;;14.35;;
60979;SDS011;46851;49.160;8.980;2023-03-01T04:03:45;33.42;;;16.25;;
60979;SDS011;46851;49.160;8.980;2023-03-01T04:06:12;31.27;;;15.40;;
60979;SDS011;46851;49.160;8.980;2023-03-01T04:14:26;31.88;;;16.05;;
60979;SDS011;46851;49.160;8.980;2023-03-01T04:22:26;30.45;;;14.95;;
60979;SDS011;46851;49.160;8.980;2023-03-01T04:24:54;31.73;;;16.17;;
60979;SDS011;46851;49.160;8.980;2023-03-01T04:27:21;31.20;;;16.15;;
60979;SDS011;46851;49.160;8.980;2023-03-01T04:29:47;32.35;;;15.82;;
60979;SDS011;46851;49.160;8.980;2023-03-01T04:32:14;31.17;;;15.90;;
60979;SDS011;46851;49.160;8.980;2023-03-01T04:34:41;36.75;;;15.27;;
60979;SDS011;46851;49.160;8.980;2023-03-01T04:37:07;33.05;;;14.75;;
60979;SDS011;46851;49.160;8.980;2023-03-01T04:39:34;27.38;;;14.52;;
60979;SDS011;46851;49.160;8.980;2023-03-01T04:42:10;30.65;;;15.70;;
60979;SDS011;46851;49.160;8.980;2023-03-01T04:44:36;30.63;;;15.93;;
60979;SDS011;46851;49.160;8.980;2023-03-01T04:47:02;31.50;;;15.00;;
60979;SDS011;46851;49.160;8.980;2023-03-01T04:49:28;33.30;;;16.05;;
60979;SDS011;46851;49.160;8.980;2023-03-01T04:51:54;30.52;;;14.82;;
60979;SDS011;46851;49.160;8.980;2023-03-01T04:54:20;32.35;;;16.77;;
60979;SDS011;46851;49.160;8.980;2023-03-01T04:56:46;31.80;;;15.15;;
60979;SDS011;46851;49.160;8.980;2023-03-01T04:59:12;37.08;;;16.30;;
60979;SDS011;46851;49.160;8.980;2023-03-01T05:01:38;33.75;;;15.82;;
60979;SDS011;46851;49.160;8.980;2023-03-01T05:04:07;33.47;;;16.08;;
60979;SDS011;46851;49.160;8.980;2023-03-01T05:06:37;30.85;;;16.55;;
60979;SDS011;46851;49.160;8.980;2023-03-01T05:09:04;30.13;;;15.18;;
60979;SDS011;46851;49.160;8.980;2023-03-01T05:11:30;31.50;;;15.07;;
60979;SDS011;46851;49.160;8.980;2023-03-01T05:14:00;31.73;;;16.90;;
60979;SDS011;46851;49.160;8.980;2023-03-01T05:16:26;36.38;;;17.70;;
60979;SDS011;46851;49.160;8.980;2023-03-01T05:18:52;33.97;;;17.35;;
60979;SDS011;46851;49.160;8.980;2023-03-01T05:21:20;32.90;;;15.75;;
60979;SDS011;46851;49.160;8.980;2023-03-01T05:23:46;31.55;;;15.25;;
60979;SDS011;46851;49.160;8.980;2023-03-01T05:26:12;34.83;;;16.05;;
60979;SDS011;46851;49.160;8.980;2023-03-01T05:28:39;30.80;;;15.43;;
60979;SDS011;46851;49.160;8.980;2023-03-01T05:31:05;34.20;;;17.42;;
60979;SDS011;46851;49.160;8.980;2023-03-01T05:33:35;35.33;;;16.80;;
60979;SDS011;46851;49.160;8.980;2023-03-01T05:36:02;29.85;;;15.50;;
60979;SDS011;46851;49.160;8.980;2023-03-01T05:38:28;30.52;;;16.63;;
60979;SDS011;46851;49.160;8.980;2023-03-01T05:40:54;36.40;;;15.82;;
60979;SDS011;46851;49.160;8.980;2023-03-01T05:43:20;34.67;;;16.13;;
60979;SDS011;46851;49.160;8.980;2023-03-01T05:45:46;33.00;;;15.40;;
60979;SDS011;46851;49.160;8.980;2023-03-01T05:48:12;36.47;;;16.92;;
60979;SDS011;46851;49.160;8.980;2023-03-01T05:50:40;35.40;;;15.70;;
60979;SDS011;46851;49.160;8.980;2023-03-01T05:53:08;37.22;;;17.35;;
60979;SDS011;46851;49.160;8.980;2023-03-01T05:55:35;36.92;;;15.55;;
60979;SDS011;46851;49.160;8.980;2023-03-01T05:58:02;31.10;;;14.95;;
60979;SDS011;46851;49.160;8.980;2023-03-01T06:00:29;30.83;;;15.15;;
60979;SDS011;46851;49.160;8.980;2023-03-01T06:02:55;38.53;;;19.63;;
60979;SDS011;46851;49.160;8.980;2023-03-01T06:05:22;35.13;;;17.30;;
60979;SDS011;46851;49.160;8.980;2023-03-01T06:07:48;36.60;;;16.98;;
60979;SDS011;46851;49.160;8.980;2023-03-01T06:10:15;31.92;;;15.93;;
60979;SDS011;46851;49.160;8.980;2023-03-01T06:12:41;32.13;;;15.35;;
60979;SDS011;46851;49.160;8.980;2023-03-01T06:15:09;35.53;;;16.58;;
60979;SDS011;46851;49.160;8.980;2023-03-01T06:17:36;32.50;;;16.63;;
60979;SDS011;46851;49.160;8.980;2023-03-01T06:20:21;35.75;;;18.15;;
60979;SDS011;46851;49.160;8.980;2023-03-01T06:22:47;33.90;;;15.57;;
60979;SDS011;46851;49.160;8.980;2023-03-01T06:25:18;33.33;;;16.70;;
60979;SDS011;46851;49.160;8.980;2023-03-01T06:27:44;32.17;;;16.08;;
60979;SDS011;46851;49.160;8.980;2023-03-01T06:30:11;34.05;;;16.92;;
60979;SDS011;46851;49.160;8.980;2023-03-01T06:32:37;33.60;;;16.27;;
60979;SDS011;46851;49.160;8.980;2023-03-01T06:35:07;32.33;;;16.45;;
60979;SDS011;46851;49.160;8.980;2023-03-01T06:37:33;33.53;;;16.27;;
60979;SDS011;46851;49.160;8.980;2023-03-01T06:40:00;29.70;;;14.90;;
60979;SDS011;46851;49.160;8.980;2023-03-01T06:42:29;34.78;;;15.95;;
60979;SDS011;46851;49.160;8.980;2023-03-01T06:44:55;35.00;;;15.63;;
60979;SDS011;46851;49.160;8.980;2023-03-01T06:47:21;35.13;;;15.50;;
60979;SDS011;46851;49.160;8.980;2023-03-01T06:49:47;29.75;;;15.48;;
60979;SDS011;46851;49.160;8.980;2023-03-01T06:52:13;30.90;;;15.98;;
60979;SDS011;46851;49.160;8.980;2023-03-01T06:54:39;31.10;;;14.75;;
60979;SDS011;46851;49.160;8.980;2023-03-01T06:57:05;31.55;;;15.25;;
60979;SDS011;46851;49.160;8.980;2023-03-01T06:59:31;29.63;;;15.82;;
60979;SDS011;46851;49.160;8.980;2023-03-01T07:01:57;36.03;;;15.18;;
60979;SDS011;46851;49.160;8.980;2023-03-01T07:04:23;29.10;;;15.50;;
60979;SDS011;46851;49.160;8.980;2023-03-01T07:06:49;29.63;;;15.00;;
60979;SDS011;46851;49.160;8.980;2023-03-01T07:11:47;33.28;;;17.02;;
60979;SDS011;46851;49.160;8.980;2023-03-01T07:14:13;34.13;;;16.70;;
60979;SDS011;46851;49.160;8.980;2023-03-01T07:16:39;33.85;;;15.95;;
60979;SDS011;46851;49.160;8.980;2023-03-01T07:19:05;35.85;;;15.75;;
60979;SDS011;46851;49.160;8.980;2023-03-01T07:21:31;32.33;;;15.48;;
60979;SDS011;46851;49.160;8.980;2023-03-01T07:23:57;36.47;;;16.60;;
60979;SDS011;46851;49.160;8.980;2023-03-01T07:26:23;32.33;;;15.65;;
60979;SDS011;46851;49.160;8.980;2023-03-01T07:28:49;33.53;;;15.30;;
60979;SDS011;46851;49.160;8.980;2023-03-01T07:31:15;36.78;;;16.92;;
60979;SDS011;46851;49.160;8.980;2023-03-01T07:33:41;34.83;;;15.93;;
60979;SDS011;46851;49.160;8.980;2023-03-01T07:36:08;31.40;;;15.70;;
60979;SDS011;46851;49.160;8.980;2023-03-01T07:38:34;29.30;;;14.38;;
60979;SDS011;46851;49.160;8.980;2023-03-01T07:41:01;30.88;;;16.50;;
60979;SDS011;46851;49.160;8.980;2023-03-01T07:43:28;33.42;;;16.02;;
60979;SDS011;46851;49.160;8.980;2023-03-01T07:45:57;27.23;;;15.52;;
60979;SDS011;46851;49.160;8.980;2023-03-01T07:50:57;27.45;;;14.57;;
60979;SDS011;46851;49.160;8.980;2023-03-01T07:53:23;29.00;;;14.82;;
60979;SDS011;46851;49.160;8.980;2023-03-01T07:55:49;27.60;;;14.65;;
60979;SDS011;46851;49.160;8.980;2023-03-01T07:58:15;25.55;;;13.77;;
60979;SDS011;46851;49.160;8.980;2023-03-01T08:00:41;26.48;;;14.07;;
60979;SDS011;46851;49.160;8.980;2023-03-01T08:03:08;25.38;;;13.77;;
60979;SDS011;46851;49.160;8.980;2023-03-01T08:05:34;24.63;;;14.90;;
60979;SDS011;46851;49.160;8.980;2023-03-01T08:08:00;25.10;;;14.88;;
60979;SDS011;46851;49.160;8.980;2023-03-01T08:10:26;30.95;;;14.70;;
60979;SDS011;46851;49.160;8.980;2023-03-01T08:12:52;27.98;;;14.95;;
60979;SDS011;46851;49.160;8.980;2023-03-01T08:15:18;28.67;;;16.27;;
60979;SDS011;46851;49.160;8.980;2023-03-01T08:23:57;26.77;;;14.43;;
60979;SDS011;46851;49.160;8.980;2023-03-01T08:26:23;26.38;;;14.50;;
60979;SDS011;46851;49.160;8.980;2023-03-01T08:28:49;27.30;;;14.38;;
60979;SDS011;46851;49.160;8.980;2023-03-01T08:31:19;25.80;;;16.00;;
60979;SDS011;46851;49.160;8.980;2023-03-01T08:33:46;26.60;;;14.40;;
60979;SDS011;46851;49.160;8.980;2023-03-01T08:36:15;25.80;;;16.38;;
60979;SDS011;46851;49.160;8.980;2023-03-01T08:38:41;30.25;;;14.35;;
60979;SDS011;46851;49.160;8.980;2023-03-01T08:41:07;24.92;;;15.05;;
60979;SDS011;46851;49.160;8.980;2023-03-01T08:43:33;27.20;;;14.52;;
60979;SDS011;46851;49.160;8.980;2023-03-01T08:45:59;26.85;;;16.17;;
60979;SDS011;46851;49.160;8.980;2023-03-01T08:48:27;24.35;;;14.80;;
60979;SDS011;46851;49.160;8.980;2023-03-01T08:50:53;29.40;;;15.18;;
60979;SDS011;46851;49.160;8.980;2023-03-01T08:53:19;23.30;;;13.63;;
60979;SDS011;46851;49.160;8.980;2023-03-01T08:55:45;23.45;;;14.73;;
60979;SDS011;46851;49.160;8.980;2023-03-01T08:58:11;26.17;;;15.15;;
60979;SDS011;46851;49.160;8.980;2023-03-01T09:00:37;26.08;;;15.45;;
60979;SDS011;46851;49.160;8.980;2023-03-01T09:03:03;25.15;;;14.57;;
60979;SDS011;46851;49.160;8.980;2023-03-01T09:05:32;26.40;;;15.55;;
60979;SDS011;46851;49.160;8.980;2023-03-01T09:07:59;24.77;;;15.30;;
60979;SDS011;46851;49.160;8.980;2023-03-01T09:10:25;27.20;;;14.82;;
60979;SDS011;46851;49.160;8.980;2023-03-01T09:12:51;27.98;;;15.55;;
60979;SDS011;46851;49.160;8.980;2023-03-01T09:15:17;25.42;;;15.27;;
60979;SDS011;46851;49.160;8.980;2023-03-01T09:17:43;30.02;;;15.18;;
60979;SDS011;46851;49.160;8.980;2023-03-01T09:20:09;25.40;;;14.98;;
60979;SDS011;46851;49.160;8.980;2023-03-01T09:22:35;24.90;;;15.02;;
60979;SDS011;46851;49.160;8.980;2023-03-01T09:25:01;24.45;;;14.15;;
60979;SDS011;46851;49.160;8.980;2023-03-01T09:27:27;27.02;;;15.50;;
60979;SDS011;46851;49.160;8.980;2023-03-01T09:29:53;27.67;;;17.15;;
60979;SDS011;46851;49.160;8.980;2023-03-01T09:32:21;23.50;;;15.73;;
60979;SDS011;46851;49.160;8.980;2023-03-01T09:34:47;29.05;;;16.65;;
60979;SDS011;46851;49.160;8.980;2023-03-01T09:37:34;27.83;;;15.65;;
60979;SDS011;46851;49.160;8.980;2023-03-01T09:40:02;32.60;;;17.75;;
60979;SDS011;46851;49.160;8.980;2023-03-01T09:42:29;26.63;;;15.88;;
60979;SDS011;46851;49.160;8.980;2023-03-01T09:44:58;27.30;;;16.70;;
60979;SDS011;46851;49.160;8.980;2023-03-01T09:47:44;27.77;;;15.80;;
60979;SDS011;46851;49.160;8.980;2023-03-01T09:50:11;36.15;;;16.48;;
60979;SDS011;46851;49.160;8.980;2023-03-01T09:55:08;24.50;;;15.70;;
60979;SDS011;46851;49.160;8.980;2023-03-01T10:02:52;26.15;;;17.08;;
60979;SDS011;46851;49.160;8.980;2023-03-01T10:08:05;23.15;;;14.52;;
60979;SDS011;46851;49.160;8.980;2023-03-01T10:10:33;27.48;;;16.38;;
60979;SDS011;46851;49.160;8.980;2023-03-01T10:13:01;29.20;;;16.45;;
60979;SDS011;46851;49.160;8.980;2023-03-01T10:15:35;27.80;;;16.42;;
60979;SDS011;46851;49.160;8.980;2023-03-01T10:18:12;25.15;;;15.68;;
60979;SDS011;46851;49.160;8.980;2023-03-01T10:20:43;28.30;;;16.73;;
60979;SDS011;46851;49.160;8.980;2023-03-01T10:23:12;27.92;;;16.98;;
60979;SDS011;46851;49.160;8.980;2023-03-01T10:31:02;27.63;;;15.73;;
60979;SDS011;46851;49.160;8.980;2023-03-01T10:33:32;26.00;;;15.30;;
60979;SDS011;46851;49.160;8.980;2023-03-01T10:35:59;25.67;;;15.60;;
60979;SDS011;46851;49.160;8.980;2023-03-01T10:38:25;25.08;;;15.85;;
60979;SDS011;46851;49.160;8.980;2023-03-01T10:40:55;29.02;;;17.17;;
60979;SDS011;46851;49.160;8.980;2023-03-01T10:43:22;25.45;;;16.35;;
60979;SDS011;46851;49.160;8.980;2023-03-01T10:45:48;31.92;;;17.38;;
60979;SDS011;46851;49.160;8.980;2023-03-01T10:50:48;23.50;;;15.32;;
60979;SDS011;46851;49.160;8.980;2023-03-01T10:55:46;26.58;;;16.65;;
60979;SDS011;46851;49.160;8.980;2023-03-01T10:58:19;24.73;;;16.02;;
60979;SDS011;46851;49.160;8.980;2023-03-01T11:03:43;27.77;;;16.10;;
60979;SDS011;46851;49.160;8.980;2023-03-01T11:08:42;25.20;;;15.65;;
60979;SDS011;46851;49.160;8.980;2023-03-01T11:13:47;27.13;;;16.65;;
60979;SDS011;46851;49.160;8.980;2023-03-01T11:16:15;26.55;;;15.63;;
60979;SDS011;46851;49.160;8.980;2023-03-01T11:18:55;24.88;;;15.27;;
60979;SDS011;46851;49.160;8.980;2023-03-01T11:21:21;24.23;;;15.40;;
60979;SDS011;46851;49.160;8.980;2023-03-01T11:23:48;26.23;;;15.65;;
60979;SDS011;46851;49.160;8.980;2023-03-01T11:26:14;24.17;;;17.25;;
60979;SDS011;46851;49.160;8.980;2023-03-01T11:28:41;25.55;;;16.45;;
60979;SDS011;46851;49.160;8.980;2023-03-01T11:31:11;26.55;;;16.90;;
60979;SDS011;46851;49.160;8.980;2023-03-01T11:33:48;24.75;;;15.43;;
60979;SDS011;46851;49.160;8.980;2023-03-01T11:38:41;24.15;;;16.00;;
60979;SDS011;46851;49.160;8.980;2023-03-01T11:41:12;28.20;;;16.77;;
60979;SDS011;46851;49.160;8.980;2023-03-01T11:51:09;24.20;;;15.48;;
60979;SDS011;46851;49.160;8.980;2023-03-01T11:54:25;27.88;;;16.77;;
60979;SDS011;46851;49.160;8.980;2023-03-01T11:56:35;28.50;;;15.50;;
60979;SDS011;46851;49.160;8.980;2023-03-01T12:09:54;27.85;;;15.10;;
60979;SDS011;46851;49.160;8.980;2023-03-01T12:15:18;27.23;;;16.35;;
60979;SDS011;46851;49.160;8.980;2023-03-01T12:20:29;29.38;;;15.88;;
60979;SDS011;46851;49.160;8.980;2023-03-01T12:25:45;30.65;;;16.65;;
60979;SDS011;46851;49.160;8.980;2023-03-01T12:31:05;28.17;;;15.63;;
60979;SDS011;46851;49.160;8.980;2023-03-01T12:36:11;28.50;;;16.88;;
60979;SDS011;46851;49.160;8.980;2023-03-01T12:44:04;26.65;;;15.88;;
60979;SDS011;46851;49.160;8.980;2023-03-01T12:49:22;25.33;;;15.35;;
60979;SDS011;46851;49.160;8.980;2023-03-01T12:51:55;24.52;;;14.57;;
60979;SDS011;46851;49.160;8.980;2023-03-01T12:54:29;25.65;;;15.55;;
60979;SDS011;46851;49.160;8.980;2023-03-01T12:56:56;25.85;;;16.20;;
60979;SDS011;46851;49.160;8.980;2023-03-01T13:11:57;26.02;;;14.93;;
60979;SDS011;46851;49.160;8.980;2023-03-01T13:16:49;27.60;;;15.13;;
60979;SDS011;46851;49.160;8.980;2023-03-01T13:19:16;27.75;;;17.13;;
60979;SDS011;46851;49.160;8.980;2023-03-01T13:21:44;28.75;;;16.42;;
60979;SDS011;46851;49.160;8.980;2023-03-01T13:29:46;26.33;;;16.33;;
60979;SDS011;46851;49.160;8.980;2023-03-01T13:34:48;29.20;;;16.13;;
60979;SDS011;46851;49.160;8.980;2023-03-01T13:39:40;25.08;;;13.82;;
60979;SDS011;46851;49.160;8.980;2023-03-01T13:44:51;28.20;;;14.73;;
60979;SDS011;46851;49.160;8.980;2023-03-01T13:47:17;25.75;;;15.05;;
60979;SDS011;46851;49.160;8.980;2023-03-01T13:49:48;26.08;;;15.75;;
60979;SDS011;46851;49.160;8.980;2023-03-01T13:55:00;28.05;;;14.93;;
60979;SDS011;46851;49.160;8.980;2023-03-01T13:57:30;24.35;;;14.75;;
60979;SDS011;46851;49.160;8.980;2023-03-01T13:59:58;25.63;;;15.57;;
60979;SDS011;46851;49.160;8.980;2023-03-01T14:02:24;25.15;;;15.30;;
60979;SDS011;46851;49.160;8.980;2023-03-01T14:05:00;30.52;;;15.40;;
60979;SDS011;46851;49.160;8.980;2023-03-01T14:07:26;29.15;;;15.02;;
60979;SDS011;46851;49.160;8.980;2023-03-01T14:10:03;26.98;;;15.73;;
60979;SDS011;46851;49.160;8.980;2023-03-01T14:12:35;25.63;;;14.82;;
60979;SDS011;46851;49.160;8.980;2023-03-01T14:20:23;25.30;;;14.50;;
60979;SDS011;46851;49.160;8.980;2023-03-01T14:22:50;23.13;;;13.48;;
60979;SDS011;46851;49.160;8.980;2023-03-01T14:27:56;27.67;;;14.73;;
60979;SDS011;46851;49.160;8.980;2023-03-01T14:30:25;24.98;;;13.50;;
60979;SDS011;46851;49.160;8.980;2023-03-01T14:32:56;27.67;;;14.88;;
60979;SDS011;46851;49.160;8.980;2023-03-01T14:35:27;25.02;;;16.67;;
60979;SDS011;46851;49.160;8.980;2023-03-01T14:37:53;26.45;;;15.65;;
60979;SDS011;46851;49.160;8.980;2023-03-01T14:40:23;27.02;;;14.75;;
60979;SDS011;46851;49.160;8.980;2023-03-01T14:42:49;27.27;;;15.63;;
60979;SDS011;46851;49.160;8.980;2023-03-01T14:45:16;23.27;;;13.60;;
60979;SDS011;46851;49.160;8.980;2023-03-01T14:47:43;22.23;;;14.27;;
60979;SDS011;46851;49.160;8.980;2023-03-01T14:50:19;27.05;;;14.57;;
60979;SDS011;46851;49.160;8.980;2023-03-01T14:52:46;25.80;;;14.13;;
60979;SDS011;46851;49.160;8.980;2023-03-01T14:55:16;27.90;;;14.23;;
60979;SDS011;46851;49.160;8.980;2023-03-01T14:57:44;24.00;;;14.13;;
60979;SDS011;46851;49.160;8.980;2023-03-01T15:00:10;25.45;;;14.75;;
60979;SDS011;46851;49.160;8.980;2023-03-01T15:02:39;28.13;;;14.88;;
60979;SDS011;46851;49.160;8.980;2023-03-01T15:05:05;24.40;;;15.02;;
60979;SDS011;46851;49.160;8.980;2023-03-01T15:07:33;25.83;;;14.27;;
60979;SDS011;46851;49.160;8.980;2023-03-01T15:09:59;26.23;;;14.10;;
60979;SDS011;46851;49.160;8.980;2023-03-01T15:14:55;27.67;;;14.88;;
60979;SDS011;46851;49.160;8.980;2023-03-01T15:17:30;24.65;;;14.10;;
60979;SDS011;46851;49.160;8.980;2023-03-01T15:19:57;26.08;;;13.85;;
60979;SDS011;46851;49.160;8.980;2023-03-01T15:22:24;24.15;;;13.38;;
60979;SDS011;46851;49.160;8.980;2023-03-01T15:24:51;25.90;;;15.50;;
60979;SDS011;46851;49.160;8.980;2023-03-01T15:27:18;27.45;;;14.20;;
60979;SDS011;46851;49.160;8.980;2023-03-01T15:29:49;29.02;;;15.38;;
60979;SDS011;46851;49.160;8.980;2023-03-01T15:32:32;26.52;;;14.93;;
60979;SDS011;46851;49.160;8.980;2023-03-01T15:34:59;27.95;;;13.60;;
60979;SDS011;46851;49.160;8.980;2023-03-01T15:40:02;26.17;;;15.65;;
60979;SDS011;46851;49.160;8.980;2023-03-01T15:47:41;26.83;;;14.85;;
60979;SDS011;46851;49.160;8.980;2023-03-01T15:50:21;28.55;;;14.55;;
60979;SDS011;46851;49.160;8.980;2023-03-01T15:52:47;27.38;;;15.40;;
60979;SDS011;46851;49.160;8.980;2023-03-01T15:55:16;23.17;;;13.30;;
60979;SDS011;46851;49.160;8.980;2023-03-01T15:57:43;25.15;;;14.38;;
60979;SDS011;46851;49.160;8.980;2023-03-01T16:00:10;28.02;;;15.55;;
60979;SDS011;46851;49.160;8.980;2023-03-01T16:02:38;27.33;;;14.75;;
60979;SDS011;46851;49.160;8.980;2023-03-01T16:05:04;23.90;;;13.60;;
60979;SDS011;46851;49.160;8.980;2023-03-01T16:07:30;25.58;;;15.05;;
60979;SDS011;46851;49.160;8.980;2023-03-01T16:09:57;26.38;;;14.50;;
60979;SDS011;46851;49.160;8.980;2023-03-01T16:12:23;30.08;;;15.73;;
60979;SDS011;46851;49.160;8.980;2023-03-01T16:14:49;25.20;;;14.77;;
60979;SDS011;46851;49.160;8.980;2023-03-01T16:17:15;24.90;;;13.95;;
60979;SDS011;46851;49.160;8.980;2023-03-01T16:19:41;24.05;;;14.70;;
60979;SDS011;46851;49.160;8.980;2023-03-01T16:22:10;26.10;;;14.75;;
60979;SDS011;46851;49.160;8.980;2023-03-01T16:24:36;30.35;;;14.63;;
60979;SDS011;46851;49.160;8.980;2023-03-01T16:27:02;25.60;;;14.98;;
60979;SDS011;46851;49.160;8.980;2023-03-01T16:29:28;24.70;;;14.35;;
60979;SDS011;46851;49.160;8.980;2023-03-01T16:31:54;25.67;;;14.98;;
60979;SDS011;46851;49.160;8.980;2023-03-01T16:34:20;26.45;;;15.32;;
60979;SDS011;46851;49.160;8.980;2023-03-01T16:36:47;33.08;;;15.15;;
60979;SDS011;46851;49.160;8.980;2023-03-01T16:39:13;25.45;;;13.55;;
60979;SDS011;46851;49.160;8.980;2023-03-01T16:41:39;24.75;;;14.02;;
60979;SDS011;46851;49.160;8.980;2023-03-01T16:44:05;26.73;;;14.13;;
60979;SDS011;46851;49.160;8.980;2023-03-01T16:46:31;26.23;;;13.85;;
60979;SDS011;46851;49.160;8.980;2023-03-01T16:48:57;23.88;;;14.07;;
60979;SDS011;46851;49.160;8.980;2023-03-01T16:51:23;28.52;;;15.07;;